Time;durP1;ratioP1;P1;durP2;ratioP2;P2;SDS_P1;SDS_P2;PMS_P1;PMS_P2;Temp;Humidity;BMP_temperature;BMP_pressure;BME280_temperature;BME280_humidity;BME280_pressure;Samples;Min_cycle;Max_cycle;Signal;HPM_P1;HPM_P2
2021/12/11 00:00:33;;;;;;;32.30;23.52;;;;;;;3.15;100.00;100437.72;5253525;28;20028;-70
2021/12/11 00:03:13;;;;;;;34.10;24.40;;;;;;;3.09;100.00;100449.25;5253432;28;20465;-70
2021/12/11 00:05:54;;;;;;;34.30;25.45;;;;;;;3.11;100.00;100449.19;5252187;28;20070;-70
2021/12/11 00:08:29;;;;;;;34.53;23.73;;;;;;;3.04;100.00;100460.81;5253231;28;20293;-70
2021/12/11 00:11:10;;;;;;;34.63;24.40;;;;;;;3.08;100.00;100457.94;5253265;28;20025;-70
2021/12/11 00:13:43;;;;;;;36.65;24.48;;;;;;;3.00;100.00;100462.75;5252689;28;20025;-70
2021/12/11 00:16:18;;;;;;;35.33;25.37;;;;;;;3.21;100.00;100464.97;5251993;28;20456;-70
2021/12/11 00:18:55;;;;;;;35.22;24.08;;;;;;;3.19;100.00;100479.78;5252856;28;20021;-70
2021/12/11 00:21:27;;;;;;;33.13;24.70;;;;;;;3.12;100.00;100484.47;5253846;28;20028;-70
2021/12/11 00:24:10;;;;;;;35.33;25.30;;;;;;;3.22;100.00;100482.16;5251777;28;20029;-70
2021/12/11 00:26:46;;;;;;;37.80;25.15;;;;;;;3.13;100.00;100494.72;5252940;28;20123;-70
2021/12/11 00:29:25;;;;;;;38.67;25.73;;;;;;;3.20;100.00;100491.78;5254247;28;20463;-70
2021/12/11 00:32:13;;;;;;;38.45;26.38;;;;;;;3.18;100.00;100499.63;5256266;28;20025;-70
2021/12/11 00:34:44;;;;;;;35.90;24.73;;;;;;;3.00;100.00;100501.56;5256770;28;20494;-70
2021/12/11 00:37:18;;;;;;;33.95;24.98;;;;;;;3.02;100.00;100509.22;5256947;28;20100;-70
2021/12/11 00:40:03;;;;;;;40.30;27.10;;;;;;;3.14;100.00;100509.38;5257502;28;20017;-70
2021/12/11 00:42:34;;;;;;;39.78;26.30;;;;;;;3.00;100.00;100511.94;5255194;28;20408;-70
2021/12/11 00:45:15;;;;;;;32.97;25.15;;;;;;;3.13;100.00;100517.19;5255643;28;20048;-70
2021/12/11 00:47:53;;;;;;;34.15;25.20;;;;;;;3.10;100.00;100522.56;5256863;28;20028;-70
2021/12/11 00:50:28;;;;;;;39.28;25.65;;;;;;;3.04;100.00;100520.34;5257128;28;20021;-70
2021/12/11 00:53:15;;;;;;;37.00;26.45;;;;;;;3.14;100.00;100531.78;5253499;28;20110;-70
2021/12/11 00:55:51;;;;;;;37.38;26.55;;;;;;;2.98;100.00;100533.63;5256103;28;20028;-70
2021/12/11 00:58:32;;;;;;;40.70;27.00;;;;;;;3.01;100.00;100536.88;5257300;28;20017;-70
2021/12/11 01:01:14;;;;;;;38.63;27.58;;;;;;;2.94;100.00;100548.50;5255659;28;20115;-70
2021/12/11 01:03:48;;;;;;;38.47;27.17;;;;;;;2.87;100.00;100552.34;5256351;28;20029;-70
2021/12/11 01:06:23;;;;;;;38.45;25.33;;;;;;;2.83;100.00;100553.44;5256599;28;20115;-70
2021/12/11 01:08:59;;;;;;;37.92;26.55;;;;;;;2.81;100.00;100557.91;5256695;28;20406;-70
2021/12/11 01:11:49;;;;;;;38.72;26.00;;;;;;;2.91;100.00;100562.44;5255243;28;20108;-70
2021/12/11 01:14:37;;;;;;;39.65;26.67;;;;;;;2.81;100.00;100569.06;5256069;28;20024;-70
2021/12/11 01:17:12;;;;;;;35.30;25.85;;;;;;;2.79;100.00;100572.66;5256685;28;20025;-70
2021/12/11 01:19:47;;;;;;;36.42;25.75;;;;;;;2.76;100.00;100578.00;5255622;28;20032;-70
2021/12/11 01:22:34;;;;;;;40.10;27.20;;;;;;;2.75;100.00;100577.16;5255490;28;20067;-70
2021/12/11 01:25:20;;;;;;;37.67;27.17;;;;;;;2.68;100.00;100589.59;5255054;28;20115;-70
2021/12/11 01:28:03;;;;;;;41.22;28.30;;;;;;;2.75;100.00;100584.94;5255445;28;20446;-70
2021/12/11 01:30:42;;;;;;;36.25;25.55;;;;;;;2.74;100.00;100593.63;5255279;28;20059;-70
2021/12/11 01:33:14;;;;;;;38.60;27.48;;;;;;;2.68;100.00;100597.38;5255844;28;20025;-70
2021/12/11 01:35:47;;;;;;;36.85;26.80;;;;;;;2.70;100.00;100607.66;5255435;28;20052;-70
2021/12/11 01:38:22;;;;;;;41.58;27.50;;;;;;;2.78;100.00;100613.22;5255880;28;20025;-70
2021/12/11 01:40:58;;;;;;;37.65;25.92;;;;;;;2.78;100.00;100627.91;5255774;28;20021;-70
2021/12/11 01:43:33;;;;;;;38.83;27.10;;;;;;;2.73;100.00;100628.19;5255380;28;20029;-70
2021/12/11 01:46:05;;;;;;;38.28;26.80;;;;;;;2.73;100.00;100629.91;5254982;28;20442;-70
2021/12/11 01:48:49;;;;;;;34.97;25.23;;;;;;;2.87;100.00;100643.75;5254890;28;20025;-70
2021/12/11 01:51:23;;;;;;;;;;;;;;;3.24;100.00;100649.44;5238555;28;20330;-70
2021/12/11 01:54:06;;;;;;;;;;;;;;;3.26;100.00;100650.19;5253904;28;19956;-70
2021/12/11 01:56:42;;;;;;;33.63;23.00;;;;;;;2.79;100.00;100665.78;5255818;28;19913;-70
2021/12/11 01:59:21;;;;;;;36.10;23.88;;;;;;;2.81;100.00;100679.50;5256234;28;20021;-70
2021/12/11 02:02:02;;;;;;;38.40;26.42;;;;;;;2.75;100.00;100685.00;5254852;28;20036;-70
2021/12/11 02:04:39;;;;;;;36.58;25.92;;;;;;;2.77;100.00;100698.69;5254175;28;20094;-70
2021/12/11 02:07:15;;;;;;;36.55;25.08;;;;;;;2.79;100.00;100702.00;5255363;28;20028;-70
2021/12/11 02:09:55;;;;;;;35.95;24.95;;;;;;;2.72;100.00;100696.31;5254117;28;20167;-70
2021/12/11 02:12:37;;;;;;;39.40;25.63;;;;;;;2.88;100.00;100693.75;5254915;28;20017;-70
2021/12/11 02:15:29;;;;;;;37.63;26.20;;;;;;;2.96;100.00;100695.94;5254671;28;20017;-70
2021/12/11 02:18:36;;;;;;;40.35;27.05;;;;;;;2.91;100.00;100696.97;5253450;28;20458;-70
2021/12/11 02:21:30;;;;;;;37.00;25.25;;;;;;;2.92;100.00;100703.03;5253184;28;20047;-70
2021/12/11 02:24:09;;;;;;;39.67;26.45;;;;;;;2.91;100.00;100701.31;5252579;28;20073;-70
2021/12/11 02:26:42;;;;;;;37.50;25.48;;;;;;;2.79;100.00;100720.94;5254965;28;20025;-70
2021/12/11 02:29:21;;;;;;;39.47;27.15;;;;;;;2.84;100.00;100726.72;5255610;28;20497;-70
2021/12/11 02:32:16;;;;;;;39.03;26.85;;;;;;;2.91;100.00;100733.22;5254394;28;20056;-70
2021/12/11 02:34:56;;;;;;;40.72;24.70;;;;;;;2.83;100.00;100742.31;5253839;28;20486;-70
2021/12/11 02:37:38;;;;;;;37.55;25.15;;;;;;;2.83;100.00;100743.16;5253880;28;20058;-70
2021/12/11 02:40:41;;;;;;;35.28;24.52;;;;;;;2.97;100.00;100747.59;5254587;28;20119;-70
2021/12/11 02:43:20;;;;;;;37.20;25.48;;;;;;;2.88;100.00;100748.09;5253743;28;20032;-70
2021/12/11 02:45:59;;;;;;;39.00;25.17;;;;;;;2.87;100.00;100757.59;5254199;28;20074;-70
2021/12/11 02:48:49;;;;;;;38.40;25.58;;;;;;;2.97;100.00;100757.09;5254532;28;20089;-70
2021/12/11 02:51:33;;;;;;;34.75;24.23;;;;;;;2.96;100.00;100761.44;5253042;28;20032;-70
2021/12/11 02:54:18;;;;;;;32.88;23.67;;;;;;;2.93;100.00;100761.59;5253372;28;20028;-70
2021/12/11 02:56:56;;;;;;;38.28;25.13;;;;;;;2.91;100.00;100772.03;5254554;28;20110;-70
2021/12/11 02:59:31;;;;;;;34.33;23.42;;;;;;;2.85;100.00;100779.31;5253232;28;20064;-70
2021/12/11 03:02:12;;;;;;;34.05;24.17;;;;;;;2.89;100.00;100770.47;5252820;28;20029;-70
2021/12/11 03:04:51;;;;;;;30.80;23.08;;;;;;;2.76;100.00;100778.03;5253816;28;20025;-70
2021/12/11 03:07:37;;;;;;;32.42;22.50;;;;;;;2.82;100.00;100774.28;5254000;28;20021;-70
2021/12/11 03:10:14;;;;;;;33.53;23.20;;;;;;;2.85;100.00;100785.31;5253148;28;20037;-70
2021/12/11 03:12:45;;;;;;;32.58;23.67;;;;;;;2.79;100.00;100795.97;5253466;28;20494;-70
2021/12/11 03:15:17;;;;;;;33.75;24.25;;;;;;;2.80;100.00;100800.22;5253225;28;20032;-70
2021/12/11 03:17:49;;;;;;;33.67;23.52;;;;;;;2.82;100.00;100805.34;5253264;28;20072;-70
2021/12/11 03:20:24;;;;;;;34.88;24.38;;;;;;;2.89;100.00;100804.09;5254014;28;20075;-69
2021/12/11 03:22:55;;;;;;;37.75;23.98;;;;;;;2.85;100.00;100802.59;5254087;28;20111;-70
2021/12/11 03:25:28;;;;;;;32.28;22.98;;;;;;;2.88;100.00;100802.44;5253259;28;20028;-70
2021/12/11 03:28:03;;;;;;;35.00;23.33;;;;;;;2.92;100.00;100809.13;5252493;28;20036;-70
2021/12/11 03:30:40;;;;;;;35.30;24.30;;;;;;;2.99;100.00;100809.59;5253785;28;20029;-70
2021/12/11 03:33:16;;;;;;;34.42;24.35;;;;;;;2.97;100.00;100812.28;5235635;28;20029;-70
2021/12/11 03:35:47;;;;;;;34.13;24.02;;;;;;;2.95;100.00;100818.44;5252049;28;20507;-70
2021/12/11 03:38:19;;;;;;;37.08;25.13;;;;;;;2.95;100.00;100816.69;5253084;28;20107;-71
2021/12/11 03:40:51;;;;;;;34.15;23.55;;;;;;;2.95;100.00;100824.44;5235866;28;20489;-70
2021/12/11 03:43:25;;;;;;;35.30;25.37;;;;;;;3.01;100.00;100820.72;5252977;28;20401;-70
2021/12/11 03:46:01;;;;;;;35.33;25.20;;;;;;;3.03;100.00;100817.13;5252833;28;20044;-70
2021/12/11 03:48:40;;;;;;;35.95;24.95;;;;;;;3.06;100.00;100823.88;5253523;28;20760;-70
2021/12/11 03:51:15;;;;;;;34.53;24.38;;;;;;;3.06;100.00;100822.13;5253396;28;20025;-70
2021/12/11 03:53:46;;;;;;;35.80;24.42;;;;;;;3.02;100.00;100824.97;5252025;28;20020;-70
2021/12/11 03:56:18;;;;;;;40.50;26.67;;;;;;;3.04;100.00;100834.31;5252982;28;20102;-70
2021/12/11 03:58:51;;;;;;;36.65;25.65;;;;;;;3.04;100.00;100831.75;5253753;28;20021;-70
2021/12/11 04:01:26;;;;;;;;;;;;;;;3.59;100.00;100833.88;5252387;28;20021;-70
2021/12/11 04:04:02;;;;;;;37.03;24.83;;;;;;;3.24;100.00;100841.00;5255441;28;19909;-70
2021/12/11 04:06:34;;;;;;;37.88;27.02;;;;;;;3.14;100.00;100835.50;5257884;28;20039;-71
2021/12/11 04:09:08;;;;;;;38.30;27.23;;;;;;;3.26;100.00;100841.78;5257997;28;20036;-70
2021/12/11 04:11:40;;;;;;;37.45;25.08;;;;;;;3.25;100.00;100847.03;5256054;28;20021;-70
2021/12/11 04:14:33;;;;;;;39.80;26.33;;;;;;;3.35;100.00;100853.38;5257234;28;20036;-70
2021/12/11 04:17:06;;;;;;;;;;;;;;;3.81;100.00;100858.59;5258561;28;20036;-70
2021/12/11 04:19:39;;;;;;;40.53;25.00;;;;;;;3.38;100.00;100858.41;5256676;28;19982;-70
2021/12/11 04:22:12;;;;;;;40.90;26.23;;;;;;;3.36;100.00;100862.81;5257200;28;20028;-70
2021/12/11 04:24:44;;;;;;;38.83;27.00;;;;;;;3.30;100.00;100865.75;5257532;28;20082;-70
2021/12/11 04:27:19;;;;;;;40.60;26.42;;;;;;;3.38;100.00;100868.75;5257649;28;20066;-71
2021/12/11 04:29:51;;;;;;;38.25;25.83;;;;;;;3.32;100.00;100867.31;5255691;28;20168;-70
2021/12/11 04:32:26;;;;;;;43.00;26.27;;;;;;;3.36;100.00;100865.41;5256905;28;20505;-71
2021/12/11 04:34:57;;;;;;;36.80;24.67;;;;;;;3.36;100.00;100870.56;5256709;28;20052;-70
2021/12/11 04:37:31;;;;;;;34.97;25.33;;;;;;;3.37;100.00;100874.84;5256792;28;20033;-70
2021/12/11 04:40:10;;;;;;;34.70;26.10;;;;;;;3.46;100.00;100879.53;5257123;28;20025;-70
2021/12/11 04:42:55;;;;;;;39.25;26.58;;;;;;;3.42;100.00;100888.38;5256989;28;20021;-70
2021/12/11 04:45:39;;;;;;;36.33;24.27;;;;;;;3.57;100.00;100887.53;5256495;28;20044;-70
2021/12/11 04:48:26;;;;;;;34.00;24.52;;;;;;;3.52;100.00;100899.91;5255879;28;20408;-70
2021/12/11 05:02:09;;;;;;;32.15;22.73;;;;;;;3.61;100.00;100917.53;5221735;28;20418;-70
2021/12/11 05:07:27;;;;;;;32.17;23.83;;;;;;;3.65;100.00;100920.81;5255100;28;20078;-70
2021/12/11 05:10:13;;;;;;;35.47;23.98;;;;;;;3.68;100.00;100925.00;5255469;28;20444;-70
2021/12/11 05:12:49;;;;;;;34.50;23.65;;;;;;;3.72;100.00;100923.91;5255851;28;20444;-72
2021/12/11 05:15:28;;;;;;;35.83;23.95;;;;;;;3.78;100.00;100932.16;5255641;28;20402;-71
2021/12/11 05:18:00;;;;;;;36.65;24.17;;;;;;;3.69;100.00;100927.50;5256472;28;20406;-71
2021/12/11 05:20:33;;;;;;;33.08;23.77;;;;;;;3.70;100.00;100938.69;5254409;28;20020;-70
2021/12/11 05:23:05;;;;;;;35.83;25.05;;;;;;;3.73;100.00;100943.69;5255996;28;20028;-70
2021/12/11 05:25:36;;;;;;;38.65;25.80;;;;;;;3.69;100.00;100953.41;5256489;28;20017;-70
2021/12/11 05:28:08;;;;;;;34.03;23.13;;;;;;;3.70;100.00;100952.47;5256158;28;20040;-70
2021/12/11 05:30:48;;;;;;;35.00;24.25;;;;;;;3.82;100.00;100956.16;5254791;28;20121;-70
2021/12/11 05:33:22;;;;;;;35.72;24.48;;;;;;;3.81;100.00;100955.31;5256356;28;20039;-70
2021/12/11 05:35:54;;;;;;;36.13;23.55;;;;;;;3.82;100.00;100961.31;5255840;28;20056;-70
2021/12/11 05:38:26;;;;;;;36.53;24.52;;;;;;;3.82;100.00;100954.38;5254774;28;20379;-70
2021/12/11 05:41:01;;;;;;;34.80;24.48;;;;;;;3.85;100.00;100958.56;5256278;28;20013;-70
2021/12/11 05:43:34;;;;;;;32.53;22.85;;;;;;;3.84;100.00;100962.09;5255668;28;20526;-71
2021/12/11 05:46:08;;;;;;;36.40;23.30;;;;;;;3.89;100.00;100967.84;5254519;28;20132;-70
2021/12/11 05:48:42;;;;;;;30.23;23.65;;;;;;;3.83;100.00;100970.78;5255222;28;20517;-71
2021/12/11 05:51:18;;;;;;;32.30;23.55;;;;;;;3.84;100.00;100973.28;5256217;28;20032;-70
2021/12/11 05:53:54;;;;;;;31.55;22.83;;;;;;;3.87;100.00;100980.06;5255221;28;20035;-70
2021/12/11 05:56:26;;;;;;;33.30;22.90;;;;;;;3.85;100.00;100982.72;5254787;28;20028;-70
2021/12/11 05:58:57;;;;;;;30.17;22.20;;;;;;;3.88;100.00;100976.56;5255214;28;20036;-70
2021/12/11 06:01:38;;;;;;;32.22;22.25;;;;;;;3.94;100.00;100973.63;5256084;28;20025;-71
2021/12/11 06:04:14;;;;;;;30.30;22.55;;;;;;;3.89;100.00;100980.81;5255718;28;20037;-71
2021/12/11 06:06:47;;;;;;;31.55;22.90;;;;;;;3.83;100.00;100982.00;5254255;28;20036;-70
2021/12/11 06:09:22;;;;;;;31.98;22.20;;;;;;;3.90;100.00;100990.25;5255531;28;20047;-70
2021/12/11 06:11:57;;;;;;;31.65;23.58;;;;;;;3.86;100.00;100987.00;5255174;28;20033;-70
2021/12/11 06:14:30;;;;;;;31.35;23.13;;;;;;;3.85;100.00;100984.50;5253458;28;20029;-70
2021/12/11 06:17:05;;;;;;;33.17;23.77;;;;;;;3.87;100.00;100993.03;5255035;28;20036;-72
2021/12/11 06:19:38;;;;;;;34.28;23.20;;;;;;;3.82;100.00;101006.22;5255579;28;20017;-71
2021/12/11 06:22:10;;;;;;;31.02;23.25;;;;;;;3.84;100.00;101001.81;5253909;28;20129;-70
2021/12/11 06:24:41;;;;;;;31.90;22.70;;;;;;;3.84;100.00;101009.56;5255240;28;20082;-70
2021/12/11 06:27:13;;;;;;;33.75;24.25;;;;;;;3.81;100.00;101001.97;5254097;28;20486;-70
2021/12/11 06:29:45;;;;;;;32.50;24.90;;;;;;;3.84;100.00;101025.13;5254296;28;20418;-70
2021/12/11 06:32:16;;;;;;;40.97;27.52;;;;;;;3.85;100.00;101015.59;5254713;28;20143;-70
2021/12/11 06:34:49;;;;;;;43.33;28.17;;;;;;;3.88;100.00;101024.03;5254306;28;20119;-70
2021/12/11 06:37:21;;;;;;;42.00;28.33;;;;;;;3.88;100.00;101021.44;5254815;28;20029;-70
2021/12/11 06:39:53;;;;;;;44.85;30.65;;;;;;;3.94;100.00;101028.06;5253591;28;20044;-70
2021/12/11 06:42:25;;;;;;;51.17;32.63;;;;;;;3.93;100.00;101022.94;5254154;28;20032;-71
2021/12/11 06:44:56;;;;;;;47.55;32.35;;;;;;;4.01;100.00;101041.50;5254558;28;20049;-70
2021/12/11 06:47:27;;;;;;;52.20;32.88;;;;;;;4.03;100.00;101044.88;5235379;28;20478;-72
2021/12/11 06:49:59;;;;;;;50.78;33.28;;;;;;;4.08;100.00;101048.03;5253930;28;20044;-71
2021/12/11 06:52:30;;;;;;;51.22;34.15;;;;;;;4.11;100.00;101056.50;5254891;28;20021;-71
2021/12/11 06:55:03;;;;;;;51.70;33.13;;;;;;;4.14;100.00;101058.09;5253137;28;20033;-71
2021/12/11 06:57:35;;;;;;;50.70;33.75;;;;;;;4.18;100.00;101061.34;5254488;28;20047;-71
2021/12/11 07:00:08;;;;;;;47.05;33.70;;;;;;;4.18;100.00;101064.78;5255067;28;20482;-71
2021/12/11 07:02:39;;;;;;;47.40;33.03;;;;;;;4.23;100.00;101069.72;5243513;28;20020;-70
2021/12/11 07:05:11;;;;;;;44.97;33.80;;;;;;;4.26;100.00;101064.34;5250980;28;20033;-70
2021/12/11 07:07:43;;;;;;;47.97;35.05;;;;;;;4.18;100.00;101067.38;5250777;28;20446;-71
2021/12/11 07:10:19;;;;;;;48.00;34.45;;;;;;;4.18;100.00;101072.56;5251147;28;20033;-71
2021/12/11 07:12:51;;;;;;;41.33;32.10;;;;;;;4.17;100.00;101081.25;5252862;28;20459;-70
2021/12/11 07:15:22;;;;;;;44.47;31.58;;;;;;;4.31;100.00;101076.13;5253617;28;20082;-73
2021/12/11 07:17:53;;;;;;;42.88;32.28;;;;;;;4.25;100.00;101094.66;5254174;28;20103;-71
2021/12/11 07:20:25;;;;;;;41.38;31.15;;;;;;;4.32;100.00;101083.03;5254148;28;20459;-71
2021/12/11 07:22:57;;;;;;;41.40;30.60;;;;;;;4.31;100.00;101083.09;5252708;28;20033;-72
2021/12/11 07:25:48;;;;;;;40.67;32.10;;;;;;;4.41;100.00;101096.41;5253280;28;20025;-71
2021/12/11 07:28:21;;;;;;;39.25;30.50;;;;;;;4.35;100.00;101107.94;5254086;28;20033;-71
2021/12/11 07:30:56;;;;;;;36.92;28.63;;;;;;;4.44;100.00;101110.03;5252628;28;20584;-71
2021/12/11 07:33:27;;;;;;;41.90;30.13;;;;;;;4.39;100.00;101117.22;5253676;28;20036;-71
2021/12/11 07:35:59;;;;;;;37.65;27.73;;;;;;;4.48;100.00;101121.09;5252304;28;20389;-71
2021/12/11 07:38:32;;;;;;;37.20;26.38;;;;;;;4.47;100.00;101117.66;5252198;28;20035;-71
2021/12/11 07:41:07;;;;;;;33.50;26.30;;;;;;;4.56;100.00;101122.34;5253584;28;20028;-71
2021/12/11 07:43:41;;;;;;;34.47;24.95;;;;;;;4.64;100.00;101127.94;5251139;28;20028;-71
2021/12/11 07:46:16;;;;;;;32.05;23.15;;;;;;;4.76;100.00;101131.59;5251705;28;20053;-71
2021/12/11 07:48:48;;;;;;;31.08;23.05;;;;;;;4.76;100.00;101138.56;5253649;28;20021;-71
2021/12/11 07:51:21;;;;;;;31.58;22.38;;;;;;;4.81;100.00;101141.72;5253182;28;20028;-71
2021/12/11 07:53:54;;;;;;;36.17;21.75;;;;;;;4.82;100.00;101151.19;5252206;28;20044;-71
2021/12/11 07:56:26;;;;;;;27.42;21.05;;;;;;;4.84;100.00;101144.97;5252434;28;20187;-71
2021/12/11 07:59:00;;;;;;;28.27;18.58;;;;;;;4.90;100.00;101161.16;5253641;28;20988;-71
2021/12/11 08:01:33;;;;;;;;;;;;;;;5.34;100.00;101166.41;5254464;28;20029;-71
2021/12/11 08:04:05;;;;;;;27.92;17.20;;;;;;;4.97;100.00;101162.50;5253019;28;20232;-71
2021/12/11 08:06:39;;;;;;;26.30;16.93;;;;;;;5.00;100.00;101164.88;5251640;28;20025;-71
2021/12/11 08:09:14;;;;;;;27.17;15.82;;;;;;;5.00;100.00;101167.47;5251388;28;20456;-71
2021/12/11 08:11:46;;;;;;;27.63;15.07;;;;;;;4.96;100.00;101166.81;5253347;28;20037;-70
2021/12/11 08:14:20;;;;;;;27.20;14.43;;;;;;;5.02;100.00;101170.84;5252680;28;20020;-71
2021/12/11 08:16:58;;;;;;;27.65;13.57;;;;;;;4.99;100.00;101176.19;5253571;28;20086;-71
2021/12/11 08:19:29;;;;;;;25.38;13.60;;;;;;;5.05;100.00;101181.91;5253258;28;20055;-71
2021/12/11 08:22:04;;;;;;;22.52;12.10;;;;;;;5.05;100.00;101191.44;5250762;28;20036;-71
2021/12/11 08:24:38;;;;;;;21.38;11.65;;;;;;;5.09;100.00;101188.59;5250672;28;20043;-71
2021/12/11 08:27:15;;;;;;;30.48;11.30;;;;;;;5.11;100.00;101191.94;5253384;28;20167;-71
2021/12/11 08:29:50;;;;;;;23.00;9.75;;;;;;;5.09;100.00;101198.16;5253395;28;20029;-71
2021/12/11 08:32:22;;;;;;;29.75;9.48;;;;;;;5.14;100.00;101211.69;5252705;28;20021;-71
2021/12/11 08:34:54;;;;;;;27.45;10.02;;;;;;;5.20;100.00;101211.38;5252732;28;20688;-72
2021/12/11 08:37:25;;;;;;;20.17;8.43;;;;;;;5.25;100.00;101213.69;5253896;28;20025;-71
2021/12/11 08:39:57;;;;;;;27.50;8.07;;;;;;;5.25;100.00;101219.72;5252397;28;20033;-72
2021/12/11 08:42:28;;;;;;;24.80;7.25;;;;;;;5.33;100.00;101227.09;5253098;28;20079;-71
2021/12/11 08:45:06;;;;;;;16.77;5.68;;;;;;;5.41;100.00;101235.28;5253002;28;20789;-72
2021/12/11 08:47:40;;;;;;;16.00;6.47;;;;;;;5.48;100.00;101227.97;5252234;28;20021;-71
2021/12/11 08:50:15;;;;;;;25.13;6.25;;;;;;;5.54;100.00;101233.66;5253542;28;20033;-71
2021/12/11 08:52:49;;;;;;;18.27;5.72;;;;;;;5.61;100.00;101239.34;5257196;28;20051;-71
2021/12/11 08:55:25;;;;;;;20.63;5.85;;;;;;;5.69;100.00;101237.16;5257081;28;20052;-71
2021/12/11 08:57:57;;;;;;;15.10;5.00;;;;;;;5.70;100.00;101248.38;5255428;28;20033;-71
2021/12/11 09:00:33;;;;;;;13.82;4.43;;;;;;;5.74;100.00;101248.09;5256687;28;20051;-71
2021/12/11 09:03:13;;;;;;;15.90;5.28;;;;;;;5.79;100.00;101253.03;5255425;28;20521;-71
2021/12/11 09:05:59;;;;;;;16.10;4.70;;;;;;;5.91;100.00;101273.13;5254747;28;20071;-72
2021/12/11 09:08:51;;;;;;;16.58;4.30;;;;;;;6.05;100.00;101270.56;5253125;28;20086;-71
2021/12/11 09:11:29;;;;;;;15.95;4.78;;;;;;;5.99;100.00;101272.72;5252877;28;20395;-71
2021/12/11 09:14:21;;;;;;;16.52;4.00;;;;;;;6.07;100.00;101284.34;5254698;28;20025;-72
2021/12/11 09:17:11;;;;;;;21.98;4.63;;;;;;;6.19;100.00;101295.78;5255778;28;20037;-71
2021/12/11 09:20:00;;;;;;;19.30;4.45;;;;;;;6.23;100.00;101301.66;5256500;28;20024;-71
2021/12/11 09:22:41;;;;;;;18.73;4.25;;;;;;;6.22;100.00;101315.59;5254882;28;20028;-71
2021/12/11 09:25:19;;;;;;;16.05;4.05;;;;;;;6.28;100.00;101317.81;5253345;28;20078;-71
2021/12/11 09:28:08;;;;;;;15.38;4.32;;;;;;;6.43;100.00;101318.66;5256337;28;20041;-71
2021/12/11 09:30:49;;;;;;;18.15;4.30;;;;;;;6.43;100.00;101332.50;5256852;28;20065;-71
2021/12/11 09:33:26;;;;;;;23.85;4.82;;;;;;;6.49;100.00;101331.31;5254839;28;20033;-71
2021/12/11 09:36:07;;;;;;;15.40;4.70;;;;;;;6.61;100.00;101333.19;5255907;28;20116;-71
2021/12/11 09:38:45;;;;;;;17.67;4.35;;;;;;;6.63;100.00;101340.88;5254110;28;20025;-71
2021/12/11 09:41:20;;;;;;;12.98;4.40;;;;;;;6.70;100.00;101342.19;5254832;28;20760;-71
2021/12/11 09:44:08;;;;;;;17.52;3.88;;;;;;;6.70;100.00;101350.00;5255635;28;20091;-72
2021/12/11 09:46:54;;;;;;;18.80;4.70;;;;;;;6.85;100.00;101354.28;5256038;28;20031;-71
2021/12/11 09:49:29;;;;;;;12.82;3.95;;;;;;;6.86;100.00;101357.72;5235588;28;20382;-71
2021/12/11 09:52:15;;;;;;;14.07;4.45;;;;;;;6.91;100.00;101366.94;5255065;28;20454;-71
2021/12/11 09:55:09;;;;;;;13.68;3.72;;;;;;;6.78;100.00;101377.28;5254229;28;20025;-71
2021/12/11 09:57:46;;;;;;;12.25;3.65;;;;;;;6.79;100.00;101380.72;5254049;28;20111;-71
2021/12/11 10:00:37;;;;;;;14.55;3.80;;;;;;;6.72;100.00;101377.63;5254835;28;20095;-71
2021/12/11 10:03:09;;;;;;;12.85;4.75;;;;;;;6.75;100.00;101382.66;5253611;28;20025;-71
2021/12/11 10:05:49;;;;;;;13.77;3.60;;;;;;;6.83;100.00;101387.41;5253369;28;20037;-71
2021/12/11 10:08:36;;;;;;;18.35;3.53;;;;;;;7.05;100.00;101387.78;5254694;28;20479;-71
2021/12/11 10:11:30;;;;;;;18.73;3.33;;;;;;;7.16;100.00;101394.94;5252866;28;20033;-71
2021/12/11 10:14:14;;;;;;;18.10;4.68;;;;;;;7.05;100.00;101408.63;5254850;28;20107;-71
2021/12/11 10:16:51;;;;;;;17.45;3.72;;;;;;;6.93;100.00;101385.94;5254554;28;20087;-71
2021/12/11 10:19:29;;;;;;;14.07;3.30;;;;;;;7.02;100.00;101407.97;5254852;28;20030;-72
2021/12/11 10:22:08;;;;;;;14.55;3.95;;;;;;;7.01;100.00;101401.94;5252732;28;20021;-71
2021/12/11 10:24:41;;;;;;;11.30;3.50;;;;;;;6.98;100.00;101412.53;5253120;28;20025;-71
2021/12/11 10:27:16;;;;;;;15.18;3.65;;;;;;;7.05;100.00;101416.44;5253700;28;20111;-71
2021/12/11 10:29:49;;;;;;;10.95;3.65;;;;;;;7.01;100.00;101414.97;5250038;28;20243;-71
2021/12/11 10:32:25;;;;;;;20.58;4.40;;;;;;;7.06;100.00;101412.06;5253437;28;20541;-71
2021/12/11 10:35:03;;;;;;;15.65;4.95;;;;;;;6.92;100.00;101419.88;5253314;28;20355;-71
2021/12/11 10:37:36;;;;;;;17.27;4.15;;;;;;;6.94;100.00;101429.28;5255363;28;20017;-71
2021/12/11 10:40:10;;;;;;;10.93;3.95;;;;;;;7.00;100.00;101425.44;5254765;28;20021;-71
2021/12/11 10:42:43;;;;;;;20.75;5.53;;;;;;;6.94;100.00;101429.28;5253452;28;20372;-71
2021/12/11 10:45:17;;;;;;;14.80;3.95;;;;;;;7.04;100.00;101434.75;5252259;28;20512;-72
2021/12/11 10:47:55;;;;;;;;;;;;;;;7.46;100.00;101441.72;5254729;28;20490;-71
2021/12/11 10:50:29;;;;;;;9.98;4.20;;;;;;;7.21;100.00;101442.41;5255092;28;20340;-71
2021/12/11 10:53:05;;;;;;;10.57;4.47;;;;;;;7.22;100.00;101445.84;5253808;28;20033;-71
2021/12/11 10:55:38;;;;;;;11.65;4.05;;;;;;;7.26;100.00;101445.56;5252632;28;20155;-71
2021/12/11 10:58:15;;;;;;;12.52;4.45;;;;;;;7.35;100.00;101453.72;5254592;28;20025;-71
2021/12/11 11:01:18;;;;;;;13.88;4.32;;;;;;;7.49;100.00;101457.16;5254603;28;20537;-71
2021/12/11 11:03:54;;;;;;;12.18;4.53;;;;;;;7.37;100.00;101457.09;5252586;28;20028;-72
2021/12/11 11:06:26;;;;;;;18.08;4.95;;;;;;;7.31;100.00;101471.31;5253277;28;20116;-71
2021/12/11 11:08:57;;;;;;;16.73;4.30;;;;;;;7.32;100.00;101473.84;5236308;28;20450;-71
2021/12/11 11:11:30;;;;;;;10.65;3.38;;;;;;;7.35;100.00;101478.06;5252376;28;20056;-71
2021/12/11 11:14:04;;;;;;;18.08;4.20;;;;;;;7.41;100.00;101482.88;5252845;28;20028;-71
2021/12/11 11:16:38;;;;;;;18.80;4.13;;;;;;;7.41;100.00;101490.69;5253403;28;20033;-71
2021/12/11 11:19:09;;;;;;;16.27;4.10;;;;;;;7.41;100.00;101495.06;5253800;28;20086;-71
2021/12/11 11:21:45;;;;;;;12.75;3.85;;;;;;;7.51;100.00;101499.63;5253013;28;20025;-71
2021/12/11 11:24:17;;;;;;;13.10;3.88;;;;;;;7.45;100.00;101502.59;5254220;28;20452;-71
2021/12/11 11:26:49;;;;;;;13.02;3.83;;;;;;;7.46;100.00;101504.31;5254111;28;20025;-71
2021/12/11 11:29:23;;;;;;;14.10;3.58;;;;;;;7.47;100.00;101503.38;5253488;28;20020;-71
2021/12/11 11:31:59;;;;;;;18.38;3.40;;;;;;;7.53;100.00;101510.78;5253221;28;20017;-71
2021/12/11 11:34:31;;;;;;;17.15;3.90;;;;;;;7.50;100.00;101513.63;5235482;28;20064;-71
2021/12/11 11:37:03;;;;;;;14.65;3.75;;;;;;;7.52;100.00;101514.34;5252719;28;20397;-71
2021/12/11 11:39:35;;;;;;;8.25;3.17;;;;;;;7.53;100.00;101515.16;5253281;28;20041;-71
2021/12/11 11:42:12;;;;;;;12.13;3.30;;;;;;;7.62;100.00;101524.22;5250619;28;20024;-72
2021/12/11 11:44:45;;;;;;;12.20;2.95;;;;;;;7.60;100.00;101523.47;5252135;28;20053;-72
2021/12/11 11:47:18;;;;;;;14.40;3.10;;;;;;;7.58;100.00;101534.00;5252277;28;20033;-72
2021/12/11 11:49:56;;;;;;;17.05;4.07;;;;;;;7.60;100.00;101526.91;5251885;28;20035;-72
2021/12/11 11:52:28;;;;;;;13.82;4.10;;;;;;;7.67;100.00;101537.81;5254039;28;20020;-71
2021/12/11 11:55:07;;;;;;;13.93;3.78;;;;;;;7.74;100.00;101539.09;5253155;28;20064;-71
2021/12/11 11:57:47;;;;;;;14.88;4.00;;;;;;;7.75;100.00;101531.19;5251378;28;20048;-71
2021/12/11 12:00:43;;;;;;;13.35;3.92;;;;;;;7.86;100.00;101540.94;5253305;28;20039;-71
2021/12/11 12:03:17;;;;;;;11.98;3.85;;;;;;;7.67;100.00;101540.41;5253526;28;20025;-71
2021/12/11 12:05:52;;;;;;;12.40;3.80;;;;;;;7.64;100.00;101553.63;5252493;28;20064;-71
2021/12/11 12:08:24;;;;;;;16.73;3.47;;;;;;;7.56;100.00;101549.72;5253412;28;20573;-71
2021/12/11 12:10:57;;;;;;;12.00;3.38;;;;;;;7.63;100.00;101554.56;5251975;28;20073;-71